• Join FlightAware (Why Join?)
  • Login
  • US Flag 
04:42PM EDT


 

Airport Tracker/Info


-or-


 

Live Flight TrackerFlight Track Log ✈ SWA1969 ✈ 16-Apr-2013 ✈ KDAL - KMCI

Flight Track Log - Related Links

Times and Time Zones

All times are in EDT time to prevent confusion due to time zone crossing. See the SWA1969 flight status page for this flight to view local times or setup timezone preferences in your user account.

Time Position Orientation Groundspeed Altitude Reporting Facility
EDT Latitude Longitude Course Direction KTS MPH feet Rate Location/Type
09:08AM 32.8167 -96.8333 121° Southeast 153 176 2,100  Level Dallas / Fort Worth TRACON
09:09AM 32.7833 -96.7667 121° Southeast 214 246 4,100 2,340 Climbing Dallas / Fort Worth TRACON
09:09AM 32.7500 -96.7167 128° Southeast 238 274 6,600 2,280 Climbing Dallas / Fort Worth TRACON
09:11AM 32.8228 -96.6569 35° Northeast 290 334 10,200 2,520 Climbing Fort Worth Center
09:12AM 32.9003 -96.7108 330° Northwest 276 318 13,500 2,700 Climbing Fort Worth Center
09:13AM 32.9778 -96.7647 330° Northwest 306 352 15,700 2,040 Climbing Fort Worth Center
09:14AM 33.0842 -96.7589 North 358 412 17,600 1,980 Climbing Fort Worth Center
09:15AM 33.1969 -96.7258 14° North 394 453 19,700 1,800 Climbing Fort Worth Center
09:16AM 33.3053 -96.6928 14° North 426 490 21,300 1,860 Climbing Fort Worth Center
09:17AM 33.4447 -96.6517 14° North 457 526 23,500 2,040 Climbing Fort Worth Center
09:18AM 33.5781 -96.6106 14° North 478 550 25,400 1,800 Climbing Fort Worth Center
09:19AM 33.6947 -96.5772 13° North 478 550 27,200 1,980 Climbing Fort Worth Center
09:20AM 33.8258 -96.5333 16° North 478 550 29,400 1,800 Climbing Fort Worth Center
09:21AM 33.9531 -96.4944 14° North 473 544 30,900 1,560 Climbing Fort Worth Center
09:22AM 34.0842 -96.4531 15° North 473 544 32,600 1,560 Climbing Fort Worth Center
09:23AM 34.2133 -96.4164 13° North 473 544 34,100 1,200 Climbing Fort Worth Center
09:24AM 34.3403 -96.3797 13° North 473 544 35,000 420 Climbing Fort Worth Center
09:25AM 34.4817 -96.3328 15° North 473 544 35,000  Level Fort Worth Center
09:26AM 34.6128 -96.2933 14° North 473 544 35,000  Level Fort Worth Center
09:27AM 34.7417 -96.2511 15° North 473 544 35,000  Level Fort Worth Center
09:28AM 34.8708 -96.2139 13° North 473 544 35,000  Level Fort Worth Center
09:29AM 34.9997 -96.1692 16° North 473 544 35,000  Level Fort Worth Center
09:30AM 35.1264 -96.1317 14° North 468 539 35,000  Level Fort Worth Center
09:31AM 35.2553 -96.0917 14° North 468 539 35,000  Level Fort Worth Center
09:32AM 35.3822 -96.0489 15° North 468 539 35,000  Level Fort Worth Center
09:35AM 35.6900 -95.9500 15° North 471 542 35,000  Level Kansas City Center
09:36AM 35.8181 -95.9097 14° North 473 544 35,000  Level Kansas City Center
09:37AM 35.9458 -95.8689 15° North 473 544 35,000  Level Kansas City Center
09:38AM 36.0747 -95.8275 15° North 474 545 35,000  Level Kansas City Center
09:39AM 36.2036 -95.7886 14° North 474 545 35,000  Level Kansas City Center
09:40AM 36.3386 -95.7700 North 479 551 35,000  Level Kansas City Center
09:41AM 36.4733 -95.7533 North 478 550 35,000  Level Kansas City Center
09:42AM 36.6083 -95.7339 North 479 551 35,000  Level Kansas City Center
09:43AM 36.7408 -95.7156 North 475 547 35,000  Level Kansas City Center
09:44AM 36.8728 -95.6986 North 473 544 35,000  Level Kansas City Center
09:45AM 37.0042 -95.6803 North 473 544 35,000  Level Kansas City Center
09:46AM 37.1608 -95.6586 North 469 540 35,000 -120 Level Kansas City Center
09:47AM 37.2911 -95.6397 North 469 540 34,800 -600 Descending Kansas City Center
09:48AM 37.4228 -95.6222 North 472 543 33,800 -1,020 Descending Kansas City Center
09:49AM 37.5525 -95.6031 North 470 541 32,800 -1,080 Descending Kansas City Center
09:50AM 37.6833 -95.5856 North 469 540 31,700 -1,560 Descending Kansas City Center
09:51AM 37.8119 -95.5675 North 465 535 29,600 -2,160 Descending Kansas City Center
09:52AM 37.9447 -95.5489 North 450 518 27,200 -2,340 Descending Kansas City Center
09:53AM 38.0811 -95.5289 North 440 506 24,900 -1,620 Descending Kansas City Center
09:54AM 38.1936 -95.5114 North 429 494 23,900 -1,980 Descending Kansas City Center
09:55AM 38.3094 -95.4953 North 434 499 20,900 -2,640 Descending Kansas City Center
09:56AM 38.4447 -95.4744 North 438 504 18,500 -2,040 Descending Kansas City Center
09:57AM 38.5547 -95.4594 North 420 483 16,700 -2,040 Descending Kansas City Center
09:58AM 38.6786 -95.4383 North 401 461 14,400 -2,040 Descending Kansas City Center
09:59AM 38.7803 -95.4231 North 387 445 12,500 -1,200 Descending Kansas City Center
10:00AM 38.8683 -95.3325 39° Northeast 367 422 12,000 -300 Descending Kansas City Center
10:01AM 38.9203 -95.2394 54° Northeast 337 388 12,000 -780 Level Kansas City Center
10:02AM 38.9672 -95.1211 63° Northeast 333 383 10,400 -1,620 Descending Kansas City Center
10:03AM 39.0047 -95.0242 64° Northeast 320 368 8,600 -1,680 Descending Kansas City Center
10:04AM 39.0531 -94.9192 59° Northeast 309 356 7,000 -1,320 Descending Kansas City Center
10:06AM 39.1108 -94.8608 38° Northeast 274 315 5,900 -1,200 Descending Kansas City Center
10:07AM 39.1489 -94.7928 54° Northeast 205 236 4,500 -1,200 Descending Kansas City Center
10:08AM 39.1803 -94.7656 34° Northeast 150 173 3,500 -1,020 Descending Kansas City Center
10:09AM 39.2231 -94.7500 16° North 143 165 2,500 -840 Descending Kansas City Center
10:10AM 39.2567 -94.7400 13° North 133 153 1,800 -780 Descending Kansas City Center
10:11AM 39.2956 -94.7286 13° North 131 151 1,000 -840 Descending Kansas City Center